Time;durP1;ratioP1;P1;durP2;ratioP2;P2;SDS_P1;SDS_P2;PMS_P1;PMS_P2;Temp;Humidity;BMP_temperature;BMP_pressure;BME280_temperature;BME280_humidity;BME280_pressure;Samples;Min_cycle;Max_cycle;Signal;HPM_P1;HPM_P2
2023/08/14 00:01:16;;;;;;;6.10;2.40;;;18.30;99.90;;;;;;5081465;28;20177;-64
2023/08/14 00:03:42;;;;;;;5.53;2.63;;;18.40;99.90;;;;;;5089565;28;20185;-64
2023/08/14 00:06:07;;;;;;;2.80;1.80;;;18.40;99.90;;;;;;5081527;28;20205;-64
2023/08/14 00:08:33;;;;;;;3.43;2.27;;;18.40;99.90;;;;;;5077337;28;20251;-64
2023/08/14 00:10:59;;;;;;;2.87;1.80;;;18.40;99.90;;;;;;5080806;28;20548;-64
2023/08/14 00:13:24;;;;;;;8.30;3.37;;;18.40;99.90;;;;;;5083935;28;20185;-64
2023/08/14 00:15:50;;;;;;;3.00;1.90;;;18.40;99.90;;;;;;5081841;28;20225;-64
2023/08/14 00:18:16;;;;;;;4.80;2.17;;;18.40;99.90;;;;;;5078706;28;20205;-64
2023/08/14 00:20:43;;;;;;;4.17;2.37;;;18.40;99.90;;;;;;5075948;28;20415;-64
2023/08/14 00:23:08;;;;;;;16.20;3.43;;;18.40;99.90;;;;;;5071760;28;20422;-64
2023/08/14 00:25:34;;;;;;;3.30;2.00;;;18.40;99.90;;;;;;5072077;28;20427;-64
2023/08/14 00:27:59;;;;;;;2.80;2.00;;;18.40;99.90;;;;;;5076537;28;20177;-64
2023/08/14 00:30:25;;;;;;;5.00;2.50;;;18.50;99.90;;;;;;5089030;28;20181;-64
2023/08/14 00:32:51;;;;;;;5.50;2.57;;;18.50;99.90;;;;;;5071769;28;20189;-64
2023/08/14 00:35:16;;;;;;;4.50;2.53;;;18.50;99.90;;;;;;5087649;28;20224;-64
2023/08/14 00:37:44;;;;;;;4.60;2.80;;;18.50;99.90;;;;;;5073735;28;20632;-64
2023/08/14 00:40:12;;;;;;;7.80;2.57;;;18.50;99.90;;;;;;5083594;28;20172;-64
2023/08/14 00:42:38;;;;;;;4.30;2.10;;;18.50;99.90;;;;;;5072520;28;20473;-64
2023/08/14 00:45:05;;;;;;;3.67;2.10;;;18.50;99.90;;;;;;5071222;28;20415;-63
2023/08/14 00:47:32;;;;;;;3.10;2.23;;;18.60;99.90;;;;;;5076945;28;20771;-64
2023/08/14 00:49:58;;;;;;;3.97;2.40;;;18.60;99.90;;;;;;5078993;28;20967;-64
2023/08/14 00:52:27;;;;;;;4.00;2.30;;;18.60;99.90;;;;;;5073156;28;20451;-64
2023/08/14 00:54:53;;;;;;;8.00;2.77;;;18.60;99.90;;;;;;5082350;28;20575;-64
2023/08/14 00:57:19;;;;;;;3.90;2.30;;;18.60;99.90;;;;;;5079834;28;20423;-64
2023/08/14 00:59:46;;;;;;;3.77;2.27;;;18.60;99.90;;;;;;5078902;28;20458;-64
2023/08/14 01:02:12;;;;;;;2.90;2.20;;;18.60;99.90;;;;;;5077987;28;20431;-64
2023/08/14 01:04:38;;;;;;;6.53;2.70;;;18.60;99.90;;;;;;5077924;28;20450;-64
2023/08/14 01:07:04;;;;;;;4.53;2.13;;;18.70;99.90;;;;;;5075548;28;20451;-64
2023/08/14 01:09:30;;;;;;;5.10;2.90;;;18.70;99.90;;;;;;5075204;28;20177;-64
2023/08/14 01:12:07;;;;;;;3.70;2.50;;;18.70;99.90;;;;;;5078414;28;20723;-64
2023/08/14 01:14:34;;;;;;;3.83;2.87;;;18.70;99.90;;;;;;5075775;28;20205;-64
2023/08/14 01:17:06;;;;;;;4.77;2.70;;;18.70;99.90;;;;;;5074659;28;20815;-64
2023/08/14 01:19:36;;;;;;;4.00;2.47;;;18.70;99.90;;;;;;5070700;28;20419;-64
2023/08/14 01:22:09;;;;;;;6.03;3.30;;;18.70;99.90;;;;;;5080210;28;20406;-64
2023/08/14 01:25:13;;;;;;;6.07;3.40;;;19.00;99.90;;;;;;5073439;28;20447;-64
2023/08/14 01:27:38;;;;;;;12.60;2.83;;;19.20;99.90;;;;;;5071895;28;21010;-64
2023/08/14 01:30:04;;;;;;;4.57;2.60;;;19.20;99.90;;;;;;5081952;28;20519;-65
2023/08/14 01:32:30;;;;;;;6.13;2.60;;;19.20;99.90;;;;;;5084638;28;20185;-65
2023/08/14 01:34:56;;;;;;;3.30;2.40;;;19.00;99.90;;;;;;5074964;28;20467;-63
2023/08/14 01:37:38;;;;;;;8.73;3.07;;;18.80;99.90;;;;;;5070846;28;20738;-64
2023/08/14 01:40:17;;;;;;;8.50;2.03;;;18.70;99.90;;;;;;5070399;28;20635;-63
2023/08/14 01:42:45;;;;;;;3.63;2.00;;;18.70;99.90;;;;;;5089300;28;20446;-63
2023/08/14 01:45:19;;;;;;;3.80;2.27;;;18.60;99.90;;;;;;5078233;28;20607;-63
2023/08/14 01:47:46;;;;;;;4.73;2.57;;;18.60;99.90;;;;;;5073590;28;20419;-64
2023/08/14 01:50:14;;;;;;;3.00;1.80;;;18.50;99.90;;;;;;5079229;28;20423;-64
2023/08/14 01:52:40;;;;;;;5.80;2.30;;;18.50;99.90;;;;;;5087120;28;20745;-63
2023/08/14 01:55:06;;;;;;;8.10;2.30;;;18.50;99.90;;;;;;5063160;28;20477;-63
2023/08/14 01:57:32;;;;;;;3.50;2.17;;;18.50;99.90;;;;;;5070301;28;20189;-63
2023/08/14 01:59:59;;;;;;;5.40;2.63;;;18.50;99.90;;;;;;5071316;28;20692;-63
2023/08/14 02:02:24;;;;;;;1.93;1.33;;;18.50;99.90;;;;;;5071021;28;20461;-63
2023/08/14 02:04:50;;;;;;;11.60;2.10;;;18.50;99.90;;;;;;5076944;28;20422;-63
2023/08/14 02:07:17;;;;;;;2.63;1.90;;;18.50;99.90;;;;;;5070593;28;20192;-64
2023/08/14 02:09:42;;;;;;;4.13;2.43;;;18.50;99.90;;;;;;5076266;28;20272;-63
2023/08/14 02:12:09;;;;;;;4.43;2.57;;;18.50;99.90;;;;;;5078073;28;20434;-63
2023/08/14 02:14:34;;;;;;;3.83;2.33;;;18.40;99.90;;;;;;5077213;28;20224;-63
2023/08/14 02:17:00;;;;;;;4.33;2.13;;;18.40;99.90;;;;;;5074477;28;20870;-63
2023/08/14 02:19:26;;;;;;;4.23;2.50;;;18.40;99.90;;;;;;5079991;28;20189;-63
2023/08/14 02:21:51;;;;;;;5.10;2.00;;;18.40;99.90;;;;;;5082618;28;20726;-63
2023/08/14 02:24:17;;;;;;;14.40;2.10;;;18.40;99.90;;;;;;5051953;28;20250;-63
2023/08/14 02:26:43;;;;;;;4.27;2.03;;;18.30;99.90;;;;;;5070148;28;20185;-63
2023/08/14 02:29:09;;;;;;;6.60;2.70;;;18.30;99.90;;;;;;5069977;28;20185;-64
2023/08/14 02:31:34;;;;;;;6.10;2.07;;;18.30;99.90;;;;;;5070510;28;20247;-63
2023/08/14 02:34:01;;;;;;;9.50;3.03;;;18.20;99.90;;;;;;5078999;28;21082;-63
2023/08/14 02:36:27;;;;;;;5.53;1.90;;;18.20;99.90;;;;;;5082672;28;20188;-63
2023/08/14 02:38:53;;;;;;;4.27;2.53;;;18.20;99.90;;;;;;5070601;28;20420;-63
2023/08/14 02:41:20;;;;;;;4.00;2.00;;;18.10;99.90;;;;;;5077571;28;20415;-63
2023/08/14 02:43:46;;;;;;;3.27;1.80;;;18.10;99.90;;;;;;5088967;28;20419;-64
2023/08/14 02:46:12;;;;;;;2.73;1.83;;;18.10;99.90;;;;;;5070147;28;20760;-63
2023/08/14 02:48:37;;;;;;;4.43;2.30;;;18.10;99.90;;;;;;5070403;28;20189;-63
2023/08/14 02:51:03;;;;;;;4.00;2.37;;;18.10;99.90;;;;;;5070508;28;20323;-63
2023/08/14 02:53:29;;;;;;;3.60;1.63;;;18.20;99.90;;;;;;5083166;28;20185;-63
2023/08/14 02:55:56;;;;;;;4.50;2.00;;;18.20;99.90;;;;;;5076914;28;20670;-64
2023/08/14 02:58:21;;;;;;;3.90;1.70;;;18.10;99.90;;;;;;5075368;28;20192;-64
2023/08/14 03:00:48;;;;;;;5.20;2.10;;;18.10;99.90;;;;;;5076582;28;20531;-64
2023/08/14 03:03:14;;;;;;;3.33;2.10;;;18.10;99.90;;;;;;5073322;28;20534;-64
2023/08/14 03:05:40;;;;;;;3.03;1.63;;;18.10;99.90;;;;;;5077041;28;20426;-64
2023/08/14 03:08:06;;;;;;;4.00;1.90;;;18.10;99.90;;;;;;5072106;28;20563;-64
2023/08/14 03:10:32;;;;;;;4.33;2.20;;;18.00;99.90;;;;;;5082714;28;20506;-64
2023/08/14 03:12:59;;;;;;;4.93;2.10;;;18.00;99.90;;;;;;5069515;28;20201;-64
2023/08/14 03:15:24;;;;;;;2.83;1.50;;;18.00;99.90;;;;;;5081833;28;20273;-64
2023/08/14 03:17:50;;;;;;;4.40;2.10;;;18.00;99.90;;;;;;5086504;28;20431;-64
2023/08/14 03:20:15;;;;;;;2.57;1.70;;;17.90;99.90;;;;;;5078968;28;20226;-64
2023/08/14 03:22:41;;;;;;;5.70;2.10;;;17.80;99.90;;;;;;5079280;28;20181;-64
2023/08/14 03:25:07;;;;;;;4.27;2.50;;;17.70;99.90;;;;;;5080685;28;20192;-64
2023/08/14 03:27:33;;;;;;;2.60;1.73;;;17.70;99.90;;;;;;5091911;28;20176;-63
2023/08/14 03:29:59;;;;;;;2.67;1.80;;;17.70;99.90;;;;;;5073620;28;20454;-64
2023/08/14 03:32:24;;;;;;;3.77;2.13;;;17.70;99.90;;;;;;5074406;28;20184;-64
2023/08/14 03:34:51;;;;;;;3.73;1.97;;;17.70;99.90;;;;;;5080480;28;20275;-64
2023/08/14 03:37:16;;;;;;;2.63;1.67;;;17.60;99.90;;;;;;5073142;28;20173;-64
2023/08/14 03:39:42;;;;;;;3.13;1.63;;;17.60;99.90;;;;;;5081594;28;20418;-64
2023/08/14 03:42:08;;;;;;;4.60;2.53;;;17.50;99.90;;;;;;5077600;28;20250;-64
2023/08/14 03:44:33;;;;;;;4.83;2.10;;;17.50;99.90;;;;;;5072851;28;20185;-64
2023/08/14 03:46:59;;;;;;;3.50;1.93;;;17.50;99.90;;;;;;5072978;28;20522;-63
2023/08/14 03:49:25;;;;;;;3.93;2.27;;;17.40;99.90;;;;;;5072978;28;20483;-64
2023/08/14 03:51:50;;;;;;;5.07;2.10;;;17.40;99.90;;;;;;5086226;28;20612;-63
2023/08/14 03:54:16;;;;;;;4.53;2.80;;;17.30;99.90;;;;;;5072493;28;20197;-64
2023/08/14 03:56:41;;;;;;;5.40;3.33;;;17.30;99.90;;;;;;5072731;28;20618;-64
2023/08/14 03:59:07;;;;;;;6.83;3.20;;;17.30;99.90;;;;;;5072795;28;20226;-64
2023/08/14 04:01:34;;;;;;;6.60;3.00;;;17.30;99.90;;;;;;5073505;28;20174;-64
2023/08/14 04:03:59;;;;;;;9.57;3.83;;;17.30;99.90;;;;;;5092668;28;20504;-64
2023/08/14 04:06:25;;;;;;;5.37;2.97;;;17.20;99.90;;;;;;5078538;28;20419;-64
2023/08/14 04:08:51;;;;;;;3.23;2.00;;;17.20;99.90;;;;;;5082438;28;20192;-63
2023/08/14 04:11:16;;;;;;;6.23;2.57;;;17.10;99.90;;;;;;5083596;28;20184;-64
2023/08/14 04:13:42;;;;;;;4.50;2.37;;;17.10;99.90;;;;;;5072080;28;20781;-64
2023/08/14 04:16:07;;;;;;;6.90;3.33;;;17.20;99.90;;;;;;5086920;28;20199;-64
2023/08/14 04:18:34;;;;;;;3.13;2.20;;;17.20;99.90;;;;;;5079968;28;20184;-64
2023/08/14 04:21:00;;;;;;;4.40;3.27;;;17.10;99.90;;;;;;5073603;28;20199;-64
2023/08/14 04:23:26;;;;;;;4.37;2.60;;;17.20;99.90;;;;;;5075810;28;20435;-64
2023/08/14 04:25:52;;;;;;;6.70;2.60;;;17.20;99.90;;;;;;5079415;28;20180;-64
2023/08/14 04:28:18;;;;;;;4.60;2.60;;;17.20;99.90;;;;;;5079752;28;20447;-64
2023/08/14 04:30:44;;;;;;;5.10;3.33;;;17.20;99.90;;;;;;5079886;28;20422;-64
2023/08/14 04:33:10;;;;;;;10.23;2.77;;;17.20;99.90;;;;;;5083586;28;20421;-63
2023/08/14 04:35:37;;;;;;;3.80;2.60;;;17.20;99.90;;;;;;5075436;28;20419;-63
2023/08/14 04:38:04;;;;;;;5.17;2.77;;;17.20;99.90;;;;;;5079163;28;20226;-64
2023/08/14 04:40:29;;;;;;;4.87;1.73;;;17.10;99.90;;;;;;5091576;28;20996;-64
2023/08/14 04:42:55;;;;;;;8.30;2.67;;;17.20;99.90;;;;;;5071701;28;20617;-64
2023/08/14 04:45:21;;;;;;;4.97;2.70;;;17.20;99.90;;;;;;5085293;28;20685;-64
2023/08/14 04:47:47;;;;;;;4.50;1.93;;;17.20;99.90;;;;;;5071720;28;20177;-64
2023/08/14 04:50:13;;;;;;;3.80;1.80;;;17.10;99.90;;;;;;5071703;28;20887;-64
2023/08/14 04:52:38;;;;;;;3.03;2.07;;;17.10;99.90;;;;;;5087499;28;20226;-64
2023/08/14 04:55:05;;;;;;;4.60;2.23;;;17.10;99.90;;;;;;5082202;28;20203;-64
2023/08/14 04:57:31;;;;;;;3.33;2.43;;;17.10;99.90;;;;;;5078639;28;20271;-64
2023/08/14 04:59:57;;;;;;;2.03;1.43;;;17.10;99.90;;;;;;5080965;28;20506;-64
2023/08/14 05:02:23;;;;;;;3.93;2.30;;;17.20;99.90;;;;;;5077575;28;20173;-64
2023/08/14 05:04:48;;;;;;;4.10;2.30;;;17.20;99.90;;;;;;5080790;28;20594;-64
2023/08/14 05:07:14;;;;;;;4.00;2.13;;;17.20;99.90;;;;;;5073271;28;20181;-64
2023/08/14 05:09:39;;;;;;;3.83;1.93;;;17.30;99.90;;;;;;5084364;28;20184;-64
2023/08/14 05:12:05;;;;;;;4.20;1.83;;;17.40;99.90;;;;;;5072304;28;20267;-64
2023/08/14 05:14:31;;;;;;;4.20;2.17;;;17.40;99.90;;;;;;5077268;28;20658;-64
2023/08/14 05:16:57;;;;;;;4.43;1.87;;;17.50;99.90;;;;;;5087190;28;20192;-64
2023/08/14 05:19:22;;;;;;;2.60;1.70;;;17.60;99.90;;;;;;5086526;28;20607;-64
2023/08/14 05:21:48;;;;;;;2.47;1.67;;;17.70;99.90;;;;;;5084260;28;20169;-64
2023/08/14 05:24:14;;;;;;;3.70;2.10;;;17.80;99.90;;;;;;5083880;28;20208;-64
2023/08/14 05:26:40;;;;;;;9.83;2.60;;;18.00;99.90;;;;;;5078693;28;20191;-64
2023/08/14 05:29:06;;;;;;;4.23;2.10;;;18.10;99.90;;;;;;5090597;28;20422;-64
2023/08/14 05:31:31;;;;;;;3.10;1.83;;;18.10;99.90;;;;;;5078909;28;20189;-65
2023/08/14 05:33:57;;;;;;;4.27;2.40;;;18.10;99.90;;;;;;5078556;28;20201;-65
2023/08/14 05:36:23;;;;;;;2.90;1.90;;;18.10;99.90;;;;;;5077478;28;20180;-65
2023/08/14 05:38:49;;;;;;;5.20;2.80;;;18.20;99.90;;;;;;5077622;28;20185;-65
2023/08/14 05:41:15;;;;;;;4.13;2.17;;;18.20;99.90;;;;;;5070645;28;20178;-65
2023/08/14 05:43:40;;;;;;;3.13;2.13;;;18.30;99.90;;;;;;5069832;28;20454;-65
2023/08/14 05:46:06;;;;;;;3.10;2.00;;;18.30;99.90;;;;;;5091133;28;20635;-65
2023/08/14 05:48:32;;;;;;;4.67;2.87;;;18.40;99.90;;;;;;5077677;28;20689;-65
2023/08/14 05:50:57;;;;;;;4.60;2.30;;;18.40;99.90;;;;;;5072523;28;20557;-65
2023/08/14 05:53:23;;;;;;;5.40;2.00;;;18.40;99.90;;;;;;5083765;28;20184;-65
2023/08/14 05:55:49;;;;;;;5.20;1.93;;;18.40;99.90;;;;;;5077349;28;20208;-65
2023/08/14 05:58:14;;;;;;;5.23;2.27;;;18.30;99.90;;;;;;5090602;28;20187;-65
2023/08/14 06:00:40;;;;;;;2.83;1.87;;;18.30;99.90;;;;;;5070974;28;20207;-65
2023/08/14 06:03:07;;;;;;;2.87;1.50;;;18.40;99.90;;;;;;5070659;28;20659;-65
2023/08/14 06:05:33;;;;;;;6.20;2.40;;;18.40;99.90;;;;;;5076894;28;20204;-65
2023/08/14 06:07:58;;;;;;;3.13;1.20;;;18.40;99.90;;;;;;5085713;28;20453;-65
2023/08/14 06:10:24;;;;;;;3.63;1.83;;;18.40;99.90;;;;;;5084630;28;20184;-65
2023/08/14 06:12:50;;;;;;;6.23;2.27;;;18.40;99.90;;;;;;5076885;28;20592;-65
2023/08/14 06:15:18;;;;;;;3.50;1.70;;;18.50;99.90;;;;;;5078139;28;20233;-65
2023/08/14 06:17:44;;;;;;;3.00;1.80;;;18.50;99.90;;;;;;5087178;28;20410;-65
2023/08/14 06:20:10;;;;;;;6.07;1.70;;;18.50;99.90;;;;;;5077567;28;20421;-65
2023/08/14 06:22:46;;;;;;;4.20;2.40;;;18.50;99.90;;;;;;5076842;28;20200;-65
2023/08/14 06:25:13;;;;;;;4.50;1.67;;;18.50;99.90;;;;;;5078850;28;20509;-65
2023/08/14 06:27:39;;;;;;;5.10;1.73;;;18.50;99.90;;;;;;5076726;28;20423;-65
2023/08/14 06:30:08;;;;;;;3.00;1.40;;;18.50;99.90;;;;;;5081612;28;20912;-65
2023/08/14 06:32:34;;;;;;;2.60;1.50;;;18.60;99.90;;;;;;5086442;28;20419;-65
2023/08/14 06:34:59;;;;;;;4.50;2.20;;;18.70;99.90;;;;;;5076390;28;20998;-66
2023/08/14 06:37:25;;;;;;;3.40;2.43;;;18.70;99.90;;;;;;5070397;28;20173;-65
2023/08/14 06:39:51;;;;;;;4.87;2.13;;;18.90;99.90;;;;;;5070774;28;20311;-65
2023/08/14 06:42:16;;;;;;;3.73;1.93;;;18.90;99.90;;;;;;5069574;28;20188;-65
2023/08/14 06:44:42;;;;;;;3.67;1.87;;;18.90;99.90;;;;;;5070070;28;20192;-65
2023/08/14 06:47:08;;;;;;;3.30;1.83;;;19.00;99.90;;;;;;5083867;28;20208;-65
2023/08/14 06:49:33;;;;;;;3.13;2.23;;;19.00;99.90;;;;;;5072428;28;20637;-65
2023/08/14 06:51:59;;;;;;;2.77;1.83;;;19.10;99.90;;;;;;5073075;28;20188;-65
2023/08/14 06:54:24;;;;;;;2.93;1.87;;;19.20;99.90;;;;;;5087292;28;20200;-65
2023/08/14 06:56:50;;;;;;;3.13;1.57;;;19.30;99.90;;;;;;5081375;28;20524;-65
2023/08/14 06:59:16;;;;;;;2.30;1.50;;;19.40;99.90;;;;;;5082964;28;20173;-65
2023/08/14 07:01:42;;;;;;;6.53;1.90;;;19.40;99.90;;;;;;5078516;28;20419;-65
2023/08/14 07:04:07;;;;;;;5.77;2.07;;;19.60;99.90;;;;;;5073365;28;20200;-65
2023/08/14 07:06:33;;;;;;;2.97;1.67;;;19.80;99.90;;;;;;5073790;28;20279;-65
2023/08/14 07:08:59;;;;;;;3.80;2.17;;;20.20;99.90;;;;;;5074530;28;20181;-66
2023/08/14 07:11:25;;;;;;;4.70;2.17;;;20.40;99.90;;;;;;5073297;28;20639;-65
2023/08/14 07:13:51;;;;;;;2.70;1.60;;;20.70;99.90;;;;;;5082290;28;20427;-65
2023/08/14 07:16:16;;;;;;;2.90;1.50;;;21.00;99.90;;;;;;5088351;28;20913;-65
2023/08/14 07:18:42;;;;;;;5.40;1.80;;;21.30;99.90;;;;;;5093953;28;20184;-65
2023/08/14 07:21:07;;;;;;;2.73;1.70;;;21.70;99.90;;;;;;5075104;28;20173;-65
2023/08/14 07:23:33;;;;;;;5.20;2.33;;;22.00;99.90;;;;;;5085228;28;20226;-66
2023/08/14 07:26:03;;;;;;;3.13;1.80;;;22.40;99.90;;;;;;5073541;28;20184;-66
2023/08/14 07:28:29;;;;;;;4.93;2.33;;;22.90;99.90;;;;;;5082169;28;20207;-66
2023/08/14 07:30:55;;;;;;;3.10;1.70;;;23.40;99.90;;;;;;5086537;28;20458;-66
2023/08/14 07:33:21;;;;;;;2.47;1.63;;;23.80;99.90;;;;;;5073245;28;20195;-65
2023/08/14 07:35:46;;;;;;;2.80;1.60;;;24.10;99.90;;;;;;5077943;28;20211;-65
2023/08/14 07:38:12;;;;;;;3.50;1.53;;;24.30;99.90;;;;;;5073382;28;20259;-65
2023/08/14 07:40:38;;;;;;;4.50;2.00;;;25.00;99.90;;;;;;5085314;28;20194;-66
2023/08/14 07:43:04;;;;;;;5.43;1.80;;;25.70;99.90;;;;;;5081871;28;20172;-65
2023/08/14 07:45:29;;;;;;;2.70;1.67;;;26.70;99.90;;;;;;5087642;28;20296;-66
2023/08/14 07:47:55;;;;;;;3.53;2.17;;;27.50;99.90;;;;;;5084798;28;20215;-65
2023/08/14 07:50:21;;;;;;;2.03;1.33;;;27.80;99.90;;;;;;5072813;28;20276;-66
2023/08/14 07:52:46;;;;;;;2.88;1.92;;;28.30;99.90;;;;;;5073001;28;20256;-66
2023/08/14 07:55:12;;;;;;;2.75;1.23;;;28.50;99.90;;;;;;5086070;28;20296;-66
2023/08/14 07:57:37;;;;;;;4.47;1.88;;;28.80;99.90;;;;;;5080135;28;20180;-66
2023/08/14 08:00:07;;;;;;;2.60;1.40;;;29.10;99.90;;;;;;5079370;28;20212;-65
2023/08/14 08:02:32;;;;;;;2.50;1.67;;;29.40;99.90;;;;;;5081208;28;20191;-66
2023/08/14 08:04:58;;;;;;;2.60;1.83;;;30.40;99.90;;;;;;5090510;28;20187;-66
2023/08/14 08:07:24;;;;;;;4.10;1.55;;;31.00;99.80;;;;;;5072671;28;20184;-66
2023/08/14 08:09:49;;;;;;;2.40;1.30;;;31.10;98.80;;;;;;5081659;28;20535;-66
2023/08/14 08:12:15;;;;;;;3.05;1.35;;;31.50;98.10;;;;;;5078916;28;20544;-66
2023/08/14 08:14:40;;;;;;;3.22;1.63;;;31.50;98.00;;;;;;5078339;28;20658;-65
2023/08/14 08:17:06;;;;;;;2.58;1.45;;;31.90;96.80;;;;;;5075941;28;20200;-66
2023/08/14 08:19:32;;;;;;;2.80;1.60;;;31.90;97.10;;;;;;5082555;28;20653;-66
2023/08/14 08:21:57;;;;;;;3.33;1.67;;;31.00;96.20;;;;;;5085349;28;20180;-65
2023/08/14 08:24:23;;;;;;;3.00;1.35;;;31.50;96.30;;;;;;5076953;28;20707;-66
2023/08/14 08:26:49;;;;;;;3.42;1.83;;;31.00;97.10;;;;;;5081371;28;20184;-66
2023/08/14 08:29:14;;;;;;;6.15;2.05;;;31.10;99.00;;;;;;5073370;28;20188;-65
2023/08/14 08:31:40;;;;;;;3.17;1.45;;;31.40;99.00;;;;;;5078946;28;20642;-63
2023/08/14 08:34:05;;;;;;;2.10;1.15;;;31.20;98.20;;;;;;5081228;28;20251;-63
2023/08/14 08:36:31;;;;;;;3.70;1.70;;;31.20;98.20;;;;;;5084069;28;20216;-64
2023/08/14 08:38:57;;;;;;;4.25;2.38;;;31.20;98.00;;;;;;5071965;28;20218;-64
2023/08/14 08:41:32;;;;;;;6.03;1.73;;;31.70;97.30;;;;;;5071727;28;20647;-64
2023/08/14 08:44:18;;;;;;;2.70;1.77;;;32.50;95.80;;;;;;5070972;28;20168;-63
2023/08/14 08:46:51;;;;;;;6.03;1.50;;;32.20;95.40;;;;;;5084044;28;20213;-64
2023/08/14 08:49:17;;;;;;;1.98;1.30;;;32.00;95.80;;;;;;5087267;28;20188;-64
2023/08/14 08:51:44;;;;;;;3.50;2.00;;;32.00;97.10;;;;;;5071677;28;20188;-64
2023/08/14 08:54:11;;;;;;;2.45;1.50;;;32.10;96.10;;;;;;5070833;28;20212;-63
2023/08/14 08:56:37;;;;;;;2.90;1.77;;;32.20;95.00;;;;;;5071597;28;20187;-63
2023/08/14 08:59:04;;;;;;;4.13;1.77;;;32.20;95.00;;;;;;5071139;28;20184;-63
2023/08/14 09:01:30;;;;;;;2.50;1.60;;;32.00;95.40;;;;;;5071802;28;20192;-63
2023/08/14 09:03:56;;;;;;;3.25;1.85;;;31.70;95.90;;;;;;5084751;28;20185;-63
2023/08/14 09:06:21;;;;;;;2.95;1.42;;;32.40;96.30;;;;;;5071804;28;20264;-63
2023/08/14 09:08:47;;;;;;;2.55;1.45;;;32.50;95.50;;;;;;5077645;28;20185;-63
2023/08/14 09:11:13;;;;;;;3.15;1.52;;;32.40;95.80;;;;;;5071106;28;20206;-63
2023/08/14 09:13:38;;;;;;;3.45;1.75;;;31.90;97.20;;;;;;5070272;28;20180;-63
2023/08/14 09:16:04;;;;;;;3.60;1.65;;;31.90;96.50;;;;;;5082076;28;20291;-63
2023/08/14 09:18:31;;;;;;;4.38;2.13;;;31.90;95.80;;;;;;5078082;28;20225;-63
2023/08/14 09:20:57;;;;;;;6.57;2.28;;;31.80;94.80;;;;;;5086408;28;20172;-63
2023/08/14 09:23:23;;;;;;;2.83;1.65;;;32.00;96.30;;;;;;5070831;28;20624;-63
2023/08/14 09:25:50;;;;;;;3.40;1.70;;;32.00;95.70;;;;;;5084603;28;20661;-63
2023/08/14 09:28:17;;;;;;;2.97;1.85;;;31.70;94.80;;;;;;5070609;28;20177;-63
2023/08/14 09:30:43;;;;;;;5.80;1.95;;;32.20;95.60;;;;;;5077752;28;20180;-63
2023/08/14 09:33:11;;;;;;;5.50;2.50;;;32.40;94.50;;;;;;5083534;28;20168;-63
2023/08/14 09:35:38;;;;;;;3.33;2.17;;;32.10;95.90;;;;;;5087479;28;20196;-63
2023/08/14 09:38:04;;;;;;;4.45;2.40;;;32.00;96.30;;;;;;5070715;28;20216;-63
2023/08/14 09:40:31;;;;;;;3.35;1.63;;;31.60;95.30;;;;;;5071137;28;20235;-63
2023/08/14 09:42:58;;;;;;;2.10;1.55;;;32.10;95.90;;;;;;5070224;28;20169;-63
2023/08/14 09:45:27;;;;;;;6.80;2.83;;;31.50;95.20;;;;;;5070462;28;20207;-63
2023/08/14 09:47:59;;;;;;;5.05;2.70;;;31.40;95.40;;;;;;5071065;28;20299;-63
2023/08/14 09:50:27;;;;;;;3.92;2.30;;;31.40;96.70;;;;;;5072858;28;20267;-63
2023/08/14 09:52:57;;;;;;;10.10;1.98;;;31.50;96.90;;;;;;5080692;28;20197;-63
2023/08/14 09:55:25;;;;;;;4.68;2.47;;;31.50;96.40;;;;;;5073671;28;20199;-63
2023/08/14 09:57:51;;;;;;;7.18;2.00;;;31.70;95.40;;;;;;5080658;28;20194;-63
2023/08/14 10:00:16;;;;;;;3.13;1.40;;;31.40;95.70;;;;;;5074110;28;20622;-63
2023/08/14 10:02:44;;;;;;;3.85;2.42;;;30.80;95.90;;;;;;5080723;28;20190;-62
2023/08/14 10:05:10;;;;;;;3.30;2.40;;;31.30;96.00;;;;;;5076820;28;20527;-62
2023/08/14 10:07:38;;;;;;;4.35;2.22;;;31.60;94.80;;;;;;5082528;28;20172;-63
2023/08/14 10:10:07;;;;;;;3.92;2.05;;;31.40;94.90;;;;;;5079265;28;20214;-62
2023/08/14 10:12:43;;;;;;;5.47;2.33;;;31.00;96.40;;;;;;5077019;28;20234;-62
2023/08/14 10:15:16;;;;;;;3.63;2.30;;;31.00;96.60;;;;;;5069862;28;20200;-65
2023/08/14 10:17:51;;;;;;;5.78;2.38;;;31.00;96.40;;;;;;5073464;28;20226;-65
2023/08/14 10:20:20;;;;;;;3.17;2.03;;;31.00;97.20;;;;;;5079047;28;20187;-64
2023/08/14 10:22:47;;;;;;;4.90;2.20;;;30.90;96.10;;;;;;5076899;28;20619;-65
2023/08/14 10:25:14;;;;;;;6.93;2.92;;;30.30;96.30;;;;;;5082192;28;20222;-64
2023/08/14 10:27:40;;;;;;;3.25;2.03;;;30.20;97.40;;;;;;5089007;28;20188;-64
2023/08/14 10:30:07;;;;;;;4.30;2.17;;;30.30;97.20;;;;;;5086073;28;20180;-65
2023/08/14 10:32:34;;;;;;;7.00;1.95;;;30.30;96.20;;;;;;5085111;28;20189;-65
2023/08/14 10:35:00;;;;;;;6.65;1.77;;;30.30;95.10;;;;;;5087321;28;20528;-65
2023/08/14 10:37:28;;;;;;;2.97;2.08;;;30.30;95.90;;;;;;5087199;28;20183;-65
2023/08/14 10:40:20;;;;;;;3.42;1.70;;;30.50;96.20;;;;;;5083016;28;20291;-65
2023/08/14 10:42:47;;;;;;;6.75;2.58;;;30.50;95.90;;;;;;5079620;28;20563;-65
2023/08/14 10:45:17;;;;;;;8.32;2.63;;;30.70;96.60;;;;;;5082084;28;20284;-65
2023/08/14 10:47:43;;;;;;;3.42;2.17;;;30.90;95.50;;;;;;5074068;28;20229;-65
2023/08/14 10:50:19;;;;;;;4.72;1.95;;;30.80;96.20;;;;;;5075599;28;20176;-65
2023/08/14 10:52:46;;;;;;;2.40;1.48;;;30.90;95.00;;;;;;5073817;28;20237;-65
2023/08/14 10:55:25;;;;;;;2.45;1.73;;;31.00;94.10;;;;;;5087411;28;20199;-64
2023/08/14 10:57:53;;;;;;;2.80;1.50;;;30.90;93.90;;;;;;5083288;28;20198;-65
2023/08/14 11:00:24;;;;;;;5.05;2.20;;;30.90;93.00;;;;;;5091051;28;20212;-64
2023/08/14 11:03:06;;;;;;;4.45;2.10;;;30.70;93.80;;;;;;5084515;28;20191;-64
2023/08/14 11:05:39;;;;;;;3.55;1.88;;;30.50;94.20;;;;;;5080102;28;20755;-65
2023/08/14 11:08:06;;;;;;;2.83;1.55;;;30.10;94.30;;;;;;5088100;28;20527;-64
2023/08/14 11:10:35;;;;;;;3.22;2.05;;;29.90;94.40;;;;;;5078515;28;20191;-64
2023/08/14 11:13:03;;;;;;;6.40;2.03;;;30.00;94.60;;;;;;5076386;28;20199;-65
2023/08/14 11:15:32;;;;;;;2.92;1.58;;;30.00;95.10;;;;;;5075461;28;20239;-64
2023/08/14 11:17:58;;;;;;;5.65;1.95;;;30.20;94.60;;;;;;5083394;28;20183;-64
2023/08/14 11:20:29;;;;;;;3.30;1.70;;;30.20;95.50;;;;;;5074025;28;20192;-65
2023/08/14 11:22:54;;;;;;;3.05;1.42;;;30.40;95.30;;;;;;5076161;28;20184;-65
2023/08/14 11:25:21;;;;;;;6.38;2.15;;;30.70;91.80;;;;;;5083848;28;20654;-65
2023/08/14 11:27:49;;;;;;;7.38;2.35;;;30.70;92.30;;;;;;5086421;28;20241;-65
2023/08/14 11:30:16;;;;;;;4.20;2.40;;;30.70;91.70;;;;;;5082012;28;20187;-64
2023/08/14 11:32:41;;;;;;;4.05;2.35;;;30.60;91.70;;;;;;5086824;28;20543;-65
2023/08/14 11:35:08;;;;;;;5.13;2.83;;;30.40;93.30;;;;;;5087817;28;20256;-65
2023/08/14 11:37:34;;;;;;;3.15;1.70;;;30.30;94.00;;;;;;5075132;28;20180;-64
2023/08/14 11:40:07;;;;;;;6.97;2.13;;;30.60;92.80;;;;;;5083916;28;20634;-65
2023/08/14 11:42:37;;;;;;;2.83;1.83;;;30.40;93.20;;;;;;5074075;28;20196;-65
2023/08/14 11:45:05;;;;;;;5.57;2.28;;;30.50;94.20;;;;;;5072712;28;20280;-65
2023/08/14 11:47:35;;;;;;;5.57;2.42;;;30.30;94.10;;;;;;5086645;28;20283;-65
2023/08/14 11:50:03;;;;;;;6.35;2.25;;;30.40;95.10;;;;;;5075696;28;20180;-64
2023/08/14 11:52:28;;;;;;;4.35;1.83;;;30.30;94.30;;;;;;5072925;28;20714;-64
2023/08/14 11:54:55;;;;;;;5.60;2.28;;;30.30;92.70;;;;;;5085748;28;20230;-64
2023/08/14 11:57:26;;;;;;;3.83;1.58;;;30.20;92.70;;;;;;5084650;28;20211;-65
2023/08/14 11:59:53;;;;;;;4.85;2.08;;;30.00;93.00;;;;;;5085182;28;20180;-64
2023/08/14 12:02:19;;;;;;;3.92;1.85;;;29.90;93.70;;;;;;5079624;28;20259;-64
2023/08/14 12:04:46;;;;;;;2.67;1.67;;;29.60;94.00;;;;;;5084169;28;20184;-64
2023/08/14 12:07:11;;;;;;;6.47;2.65;;;29.50;95.10;;;;;;5077787;28;20180;-65
2023/08/14 12:09:38;;;;;;;5.90;2.33;;;29.40;94.40;;;;;;5084283;28;20244;-64
2023/08/14 12:12:04;;;;;;;4.20;1.67;;;29.30;94.40;;;;;;5083645;28;20623;-64
2023/08/14 12:14:40;;;;;;;2.83;1.85;;;29.10;95.30;;;;;;5085302;28;20204;-64
2023/08/14 12:17:10;;;;;;;4.40;1.98;;;29.00;97.00;;;;;;5081073;28;20199;-64
2023/08/14 12:19:37;;;;;;;3.63;1.73;;;28.80;94.80;;;;;;5074921;28;20607;-64
2023/08/14 12:22:03;;;;;;;3.80;1.70;;;28.60;94.60;;;;;;5092810;28;20184;-64
2023/08/14 12:24:39;;;;;;;2.65;1.80;;;28.50;94.80;;;;;;5078249;28;20187;-64
2023/08/14 12:27:25;;;;;;;4.07;2.33;;;28.40;94.70;;;;;;5081430;28;20180;-64
2023/08/14 12:29:53;;;;;;;4.40;2.63;;;28.30;95.50;;;;;;5072362;28;20211;-64
2023/08/14 12:32:19;;;;;;;4.80;2.05;;;28.20;93.30;;;;;;5085663;28;20187;-64
2023/08/14 12:34:44;;;;;;;3.55;1.70;;;28.10;95.40;;;;;;5076496;28;20235;-65
2023/08/14 12:37:12;;;;;;;6.68;2.60;;;27.90;96.40;;;;;;5072085;28;20212;-64
2023/08/14 12:39:38;;;;;;;6.32;2.22;;;27.70;97.00;;;;;;5078876;28;20280;-64
2023/08/14 12:42:04;;;;;;;4.53;1.60;;;27.60;97.70;;;;;;5091615;28;20264;-64
2023/08/14 12:44:30;;;;;;;5.32;2.38;;;27.60;98.70;;;;;;5071541;28;20188;-64